Wootton, United Kingdom
Current Conditions -  °F | °C
As of 2:50 AM on Tuesday 23 Dec 2014 (Local Time) from EGGW Reporting Station
Broken Clouds Broken Clouds  
Wind Chill: 50°   Ceiling: 2800
Heat Index: 50°   Visibility: 6mi
Dew Point: 43°   Wind: 24mph
Humidity: 76%   Direction: 240°WSW
Pressure: 30"   Gusts: 38mph
Location:  52.1°N, 0.53°W
Report Text: EGGW 230250Z 24021G33KT 9999 BKN028 10/06 Q1016
Loading
Personal Weather Stations






























Interactive Weather Map New forecast layout! Learn more

10-Day Weather Forecast

Advertisements
Track Severe Weather on mobile